createdAt,value
2018-01-13T00:01:27.669Z,138.23
2018-01-13T00:03:54.212Z,146.62
2018-01-13T00:06:20.860Z,146.57
2018-01-13T00:08:48.298Z,145.52
2018-01-13T00:11:15.494Z,135.52
2018-01-13T00:13:42.030Z,140.80
2018-01-13T00:16:08.544Z,136.12
2018-01-13T00:18:34.852Z,189.20
2018-01-13T00:21:01.922Z,175.05
2018-01-13T00:23:29.197Z,129.05
2018-01-13T00:25:55.625Z,135.25
2018-01-13T00:28:21.977Z,123.75
2018-01-13T00:30:48.425Z,144.35
2018-01-13T00:33:14.712Z,141.93
2018-01-13T00:35:41.118Z,126.65
2018-01-13T00:38:07.636Z,137.88
2018-01-13T00:40:34.213Z,133.12
2018-01-13T00:43:02.142Z,131.32
2018-01-13T00:45:28.608Z,131.95
2018-01-13T00:47:55.098Z,130.52
2018-01-13T00:50:22.375Z,138.80
2018-01-13T00:52:49.741Z,152.10
2018-01-13T00:55:16.741Z,141.85
2018-01-13T00:57:43.445Z,140.93
2018-01-13T01:00:10.549Z,150.70
2018-01-13T01:02:37.561Z,139.52
2018-01-13T01:05:04.743Z,143.65
2018-01-13T01:07:31.845Z,126.60
2018-01-13T01:09:58.332Z,119.05
2018-01-13T01:12:25.089Z,136.85
2018-01-13T01:14:51.492Z,128.43
2018-01-13T01:17:18.029Z,123.20
2018-01-13T01:19:44.270Z,118.13
2018-01-13T01:22:10.520Z,112.72
2018-01-13T01:24:37.639Z,112.22
2018-01-13T01:27:03.896Z,113.12
2018-01-13T01:29:30.152Z,136.05
2018-01-13T01:31:56.399Z,137.40
2018-01-13T01:34:22.725Z,141.05
2018-01-13T01:36:48.990Z,144.68
2018-01-13T01:39:15.254Z,125.20
2018-01-13T01:41:41.524Z,134.00
2018-01-13T01:44:07.786Z,129.65
2018-01-13T01:46:34.027Z,112.43
2018-01-13T01:49:00.281Z,110.82
2018-01-13T01:51:27.276Z,102.75
2018-01-13T01:53:54.269Z,95.28
2018-01-13T01:56:21.250Z,75.78
2018-01-13T01:58:47.501Z,85.82
2018-01-13T02:01:13.753Z,81.82
2018-01-13T02:03:40.022Z,80.82
2018-01-13T02:06:06.268Z,77.87
2018-01-13T02:08:33.262Z,72.20
2018-01-13T02:10:59.539Z,77.15
2018-01-13T02:13:26.524Z,71.00
2018-01-13T02:15:52.768Z,88.05
2018-01-13T02:18:19.774Z,83.15
2018-01-13T02:20:46.027Z,74.30
2018-01-13T02:23:12.276Z,75.32
2018-01-13T02:25:40.237Z,69.80
2018-01-13T02:28:06.512Z,71.68
2018-01-13T02:30:32.785Z,83.20
2018-01-13T02:33:00.141Z,78.03
2018-01-13T02:35:27.124Z,82.60
2018-01-13T02:37:53.380Z,75.60
2018-01-13T02:40:19.634Z,74.40
2018-01-13T02:42:45.964Z,81.72
2018-01-13T02:45:12.196Z,87.28
2018-01-13T02:47:38.449Z,88.22
2018-01-13T02:50:04.703Z,91.97
2018-01-13T02:52:31.160Z,101.78
2018-01-13T02:54:57.709Z,109.35
2018-01-13T02:57:23.973Z,101.47
2018-01-13T02:59:50.968Z,103.25
2018-01-13T03:02:17.212Z,108.15
2018-01-13T03:04:43.468Z,123.35
2018-01-13T03:07:09.705Z,114.70
2018-01-13T03:09:35.988Z,109.20
2018-01-13T03:12:02.229Z,105.43
2018-01-13T03:14:28.465Z,91.60
2018-01-13T03:16:54.722Z,88.62
2018-01-13T03:19:20.965Z,79.82
2018-01-13T03:21:47.977Z,86.10
2018-01-13T03:24:14.233Z,76.12
2018-01-13T03:26:40.497Z,73.12
2018-01-13T03:29:06.721Z,78.50
2018-01-13T03:31:33.080Z,66.22
2018-01-13T03:33:59.376Z,68.15
2018-01-13T03:36:25.728Z,77.05
2018-01-13T03:38:52.428Z,68.22
2018-01-13T03:41:18.634Z,71.30
2018-01-13T03:43:45.677Z,59.38
2018-01-13T03:46:12.241Z,57.08
2018-01-13T03:48:39.253Z,52.03
2018-01-13T03:51:05.490Z,55.10
2018-01-13T03:53:31.708Z,53.95
2018-01-13T03:55:57.932Z,57.08
2018-01-13T03:58:24.182Z,50.45
2018-01-13T04:00:50.416Z,51.80
2018-01-13T04:03:16.876Z,48.22
2018-01-13T04:05:43.129Z,51.17
2018-01-13T04:08:10.113Z,55.53
2018-01-13T04:10:36.357Z,47.88
2018-01-13T04:13:02.590Z,53.83
2018-01-13T04:15:29.772Z,58.05
2018-01-13T04:17:56.010Z,66.80
2018-01-13T04:20:22.252Z,52.65
2018-01-13T04:22:48.601Z,50.03
2018-01-13T04:25:14.842Z,55.38
2018-01-13T04:27:41.076Z,59.17
2018-01-13T04:30:07.316Z,54.97
2018-01-13T04:32:33.778Z,53.28
2018-01-13T04:35:00.259Z,54.20
2018-01-13T04:37:26.490Z,53.70
2018-01-13T04:39:56.596Z,59.53
2018-01-13T04:42:22.836Z,56.47
2018-01-13T04:44:49.121Z,53.83
2018-01-13T04:47:16.208Z,58.47
2018-01-13T04:49:42.469Z,60.15
2018-01-13T04:52:08.732Z,52.58
2018-01-13T04:54:35.140Z,62.28
2018-01-13T04:57:01.937Z,51.05
2018-01-13T04:59:28.241Z,57.60
2018-01-13T05:01:54.497Z,53.87
2018-01-13T05:04:20.753Z,51.20
2018-01-13T05:06:47.001Z,61.08
2018-01-13T05:09:13.275Z,53.13
2018-01-13T05:11:40.273Z,52.00
2018-01-13T05:14:06.552Z,53.67
2018-01-13T05:16:32.820Z,48.85
2018-01-13T05:18:59.820Z,52.38
2018-01-13T05:21:26.199Z,52.53
2018-01-13T05:23:52.449Z,56.42
2018-01-13T05:26:18.687Z,49.55
2018-01-13T05:28:44.928Z,58.25
2018-01-13T05:31:11.486Z,46.40
2018-01-13T05:33:37.741Z,49.00
2018-01-13T05:36:04.081Z,51.13
2018-01-13T05:38:31.085Z,58.25
2018-01-13T05:40:57.357Z,51.10
2018-01-13T05:43:23.568Z,50.95
2018-01-13T05:45:49.848Z,50.30
2018-01-13T05:48:16.412Z,46.53
2018-01-13T05:50:43.397Z,48.42
2018-01-13T05:53:09.670Z,50.12
2018-01-13T05:55:35.940Z,49.30
2018-01-13T05:58:02.177Z,47.53
2018-01-13T06:00:28.421Z,49.38
2018-01-13T06:02:54.642Z,53.20
2018-01-13T06:05:20.872Z,52.00
2018-01-13T06:07:47.111Z,45.35
2018-01-13T06:10:13.321Z,48.50
2018-01-13T06:12:39.541Z,42.97
2018-01-13T06:15:06.509Z,47.03
2018-01-13T06:17:33.480Z,45.12
2018-01-13T06:19:59.717Z,47.05
2018-01-13T06:22:25.964Z,47.45
2018-01-13T06:24:52.192Z,53.70
2018-01-13T06:27:19.170Z,48.47
2018-01-13T06:29:45.421Z,48.58
2018-01-13T06:32:11.655Z,52.65
2018-01-13T06:34:37.919Z,48.58
2018-01-13T06:37:04.172Z,49.67
2018-01-13T06:39:30.513Z,55.45
2018-01-13T06:41:57.495Z,48.90
2018-01-13T06:44:24.460Z,52.70
2018-01-13T06:46:51.420Z,51.40
2018-01-13T06:49:17.947Z,51.63
2018-01-13T06:51:44.223Z,47.92
2018-01-13T06:54:11.246Z,46.55
2018-01-13T06:56:38.025Z,50.17
2018-01-13T06:59:04.862Z,45.40
2018-01-13T07:01:31.145Z,46.47
2018-01-13T07:03:58.996Z,43.75
2018-01-13T07:06:25.209Z,51.15
2018-01-13T07:08:52.177Z,46.33
2018-01-13T07:11:18.409Z,47.15
2018-01-13T07:13:47.240Z,48.08
2018-01-13T07:16:14.208Z,51.65
2018-01-13T07:18:41.185Z,53.42
2018-01-13T07:21:07.668Z,50.53
2018-01-13T07:23:34.086Z,45.25
2018-01-13T07:26:00.316Z,44.85
2018-01-13T07:28:26.700Z,53.13
2018-01-13T07:30:54.417Z,50.50
2018-01-13T07:33:21.553Z,46.15
2018-01-13T07:35:48.557Z,42.38
2018-01-13T07:38:14.784Z,42.42
2018-01-13T07:40:41.063Z,43.78
2018-01-13T07:43:07.312Z,45.95
2018-01-13T07:45:33.711Z,42.00
2018-01-13T07:47:59.971Z,40.42
2018-01-13T07:50:26.295Z,40.83
2018-01-13T07:52:52.547Z,36.42
2018-01-13T07:55:18.855Z,41.50
2018-01-13T07:57:45.176Z,37.85
2018-01-13T08:00:11.433Z,32.67
2018-01-13T08:02:37.689Z,34.08
2018-01-13T08:05:04.681Z,33.25
2018-01-13T08:07:31.304Z,30.85
2018-01-13T08:09:57.758Z,31.12
2018-01-13T08:12:24.321Z,30.23
2018-01-13T08:14:50.616Z,26.70
2018-01-13T08:17:17.026Z,23.25
2018-01-13T08:19:43.290Z,28.73
2018-01-13T08:22:09.534Z,25.83
2018-01-13T08:24:35.808Z,25.27
2018-01-13T08:27:02.798Z,25.80
2018-01-13T08:29:29.977Z,25.00
2018-01-13T08:31:56.158Z,26.85
2018-01-13T08:34:23.177Z,24.37
2018-01-13T08:36:50.197Z,23.87
2018-01-13T08:39:16.576Z,25.33
2018-01-13T08:41:42.855Z,24.42
2018-01-13T08:44:09.103Z,22.20
2018-01-13T08:46:36.104Z,25.12
2018-01-13T08:49:02.358Z,22.42
2018-01-13T08:51:28.645Z,25.62
2018-01-13T08:53:54.990Z,23.98
2018-01-13T08:56:22.053Z,25.20
2018-01-13T08:58:49.064Z,24.15
2018-01-13T09:01:18.216Z,25.55
2018-01-13T09:03:44.505Z,25.12
2018-01-13T09:06:10.740Z,24.12
2018-01-13T09:08:37.032Z,26.45
2018-01-13T09:11:03.252Z,24.55
2018-01-13T09:13:30.346Z,29.20
2018-01-13T09:15:57.393Z,28.08
2018-01-13T09:18:23.729Z,26.27
2018-01-13T09:20:49.987Z,25.85
2018-01-13T09:23:16.984Z,23.73
2018-01-13T09:25:44.030Z,24.65
2018-01-13T09:28:10.400Z,24.95
2018-01-13T09:30:36.622Z,25.10
2018-01-13T09:33:02.920Z,27.25
2018-01-13T09:35:29.204Z,22.62
2018-01-13T09:37:55.382Z,27.35
2018-01-13T09:40:21.612Z,24.48
2018-01-13T09:42:47.862Z,25.80
2018-01-13T09:45:14.164Z,22.85
2018-01-13T09:47:41.250Z,21.33
2018-01-13T09:50:07.497Z,20.20
2018-01-13T09:52:34.545Z,18.48
2018-01-13T09:55:00.853Z,20.23
2018-01-13T09:57:27.856Z,21.65
2018-01-13T09:59:54.396Z,19.75
2018-01-13T10:02:20.690Z,17.50
2018-01-13T10:04:47.242Z,19.20
2018-01-13T10:07:13.520Z,18.17
2018-01-13T10:09:40.578Z,17.90
2018-01-13T10:12:06.895Z,16.00
2018-01-13T10:14:33.897Z,16.48
2018-01-13T10:17:00.144Z,14.63
2018-01-13T10:19:26.560Z,15.50
2018-01-13T10:21:52.919Z,18.30
2018-01-13T10:24:20.788Z,15.95
2018-01-13T10:26:47.047Z,16.23
2018-01-13T10:29:13.156Z,16.70
2018-01-13T10:31:39.427Z,12.97
2018-01-13T10:34:05.814Z,12.65
2018-01-13T10:36:32.089Z,12.68
2018-01-13T10:38:58.368Z,15.17
2018-01-13T10:41:25.366Z,15.45
2018-01-13T10:43:51.679Z,16.23
2018-01-13T10:46:17.714Z,11.77
2018-01-13T10:48:43.760Z,13.82
2018-01-13T10:51:10.029Z,14.27
2018-01-13T10:53:36.259Z,12.30
2018-01-13T10:56:02.501Z,17.65
2018-01-13T10:58:28.725Z,13.10
2018-01-13T11:00:54.744Z,11.23
2018-01-13T11:03:20.783Z,11.50
2018-01-13T11:05:47.096Z,11.27
2018-01-13T11:08:13.374Z,11.53
2018-01-13T11:10:40.076Z,12.87
2018-01-13T11:13:06.307Z,16.93
2018-01-13T11:15:33.289Z,11.10
2018-01-13T11:17:59.534Z,11.33
2018-01-13T11:20:25.780Z,14.30
2018-01-13T11:22:52.021Z,11.93
2018-01-13T11:25:18.254Z,12.20
2018-01-13T11:27:45.540Z,10.73
2018-01-13T11:30:11.657Z,10.43
2018-01-13T11:32:37.873Z,10.17
2018-01-13T11:35:04.653Z,9.35
2018-01-13T11:37:30.672Z,11.93
2018-01-13T11:39:57.444Z,16.37
2018-01-13T11:42:23.690Z,10.88
2018-01-13T11:44:49.724Z,10.20
2018-01-13T11:47:15.772Z,11.20
2018-01-13T11:49:42.051Z,10.67
2018-01-13T11:52:08.328Z,10.50
2018-01-13T11:54:34.732Z,10.37
2018-01-13T11:57:00.944Z,9.27
2018-01-13T11:59:27.586Z,8.93
2018-01-13T12:01:53.647Z,9.90
2018-01-13T12:04:19.672Z,13.13
2018-01-13T12:06:45.925Z,8.73
2018-01-13T12:09:12.228Z,8.32
2018-01-13T12:11:38.790Z,10.10
2018-01-13T12:14:05.021Z,8.43
2018-01-13T12:16:31.268Z,10.20
2018-01-13T12:18:58.246Z,10.63
2018-01-13T12:21:24.480Z,9.85
2018-01-13T12:23:50.754Z,9.27
2018-01-13T12:26:16.976Z,7.00
2018-01-13T12:28:43.217Z,9.70
2018-01-13T12:31:09.543Z,10.63
2018-01-13T12:33:35.824Z,8.97
2018-01-13T12:36:02.830Z,9.83
2018-01-13T12:38:29.037Z,9.10
2018-01-13T12:40:55.913Z,9.37
2018-01-13T12:43:22.996Z,9.47
2018-01-13T12:45:49.274Z,9.50
2018-01-13T12:48:15.538Z,9.47
2018-01-13T12:50:41.832Z,9.60
2018-01-13T12:53:08.840Z,9.80
2018-01-13T12:55:35.681Z,10.00
2018-01-13T12:58:02.491Z,9.90
2018-01-13T13:00:28.817Z,8.90
2018-01-13T13:02:55.101Z,9.23
2018-01-13T13:05:21.636Z,13.37
2018-01-13T13:07:47.904Z,9.10
2018-01-13T13:10:14.341Z,8.93
2018-01-13T13:12:40.664Z,8.17
2018-01-13T13:15:06.960Z,10.18
2018-01-13T13:17:33.235Z,8.53
2018-01-13T13:19:59.598Z,9.00
2018-01-13T13:22:26.607Z,10.27
2018-01-13T13:24:52.920Z,9.07
2018-01-13T13:27:19.010Z,11.43
2018-01-13T13:29:46.814Z,9.90
2018-01-13T13:32:13.636Z,8.53
2018-01-13T13:34:40.432Z,8.63
2018-01-13T13:37:06.481Z,9.77
2018-01-13T13:39:32.864Z,8.80
2018-01-13T13:41:59.141Z,9.53
2018-01-13T13:44:25.392Z,8.43
2018-01-13T13:46:57.928Z,10.30
2018-01-13T13:49:24.193Z,9.17
2018-01-13T13:51:50.474Z,9.97
2018-01-13T13:54:16.730Z,8.57
2018-01-13T13:56:42.988Z,9.60
2018-01-13T13:59:10.007Z,10.30
2018-01-13T14:01:36.277Z,10.77
2018-01-13T14:04:02.683Z,7.80
2018-01-13T14:06:28.949Z,13.03
2018-01-13T14:08:55.212Z,9.23
2018-01-13T14:11:21.273Z,9.80
2018-01-13T14:13:48.061Z,8.27
2018-01-13T14:16:14.693Z,10.17
2018-01-13T14:18:46.061Z,9.37
2018-01-13T14:21:12.359Z,8.20
2018-01-13T14:23:39.356Z,9.63
2018-01-13T14:26:05.637Z,10.32
2018-01-13T14:28:31.903Z,10.65
2018-01-13T14:30:58.906Z,10.73
2018-01-13T14:33:25.160Z,11.20
2018-01-13T14:35:51.400Z,11.60
2018-01-13T14:38:21.142Z,11.55
2018-01-13T14:40:47.191Z,10.85
2018-01-13T14:43:13.228Z,8.90
2018-01-13T14:45:39.274Z,11.07
2018-01-13T14:48:05.296Z,11.27
2018-01-13T14:50:31.337Z,10.40
2018-01-13T14:52:57.389Z,11.70
2018-01-13T14:55:23.425Z,10.27
2018-01-13T14:57:49.491Z,11.50
2018-01-13T15:00:19.073Z,10.20
2018-01-13T15:02:45.142Z,9.45
2018-01-13T15:05:11.924Z,9.50
2018-01-13T15:07:38.018Z,11.93
2018-01-13T15:10:04.277Z,12.50
2018-01-13T15:12:30.688Z,11.65
2018-01-13T15:14:56.902Z,14.02
2018-01-13T15:17:23.145Z,11.43
2018-01-13T15:19:52.489Z,12.52
2018-01-13T15:22:19.451Z,12.40
2018-01-13T15:24:45.685Z,12.32
2018-01-13T15:27:12.661Z,11.12
2018-01-13T15:29:39.260Z,14.10
2018-01-13T15:32:05.692Z,10.40
2018-01-13T15:34:31.750Z,11.38
2018-01-13T15:36:57.813Z,12.20
2018-01-13T15:39:26.436Z,10.43
2018-01-13T15:41:52.485Z,14.32
2018-01-13T15:44:19.281Z,14.00
2018-01-13T15:46:45.565Z,12.13
2018-01-13T15:49:11.805Z,12.40
2018-01-13T15:51:38.076Z,18.40
2018-01-13T15:54:04.366Z,16.15
2018-01-13T15:56:30.489Z,13.15
2018-01-13T15:59:01.069Z,14.43
2018-01-13T16:01:27.148Z,14.45
2018-01-13T16:03:53.529Z,14.25
2018-01-13T16:06:19.837Z,14.77
2018-01-13T16:08:46.097Z,14.60
2018-01-13T16:11:12.369Z,16.02
2018-01-13T16:13:38.725Z,14.13
2018-01-13T16:16:10.160Z,23.27
2018-01-13T16:18:36.429Z,16.30
2018-01-13T16:21:02.701Z,15.48
2018-01-13T16:23:29.120Z,13.52
2018-01-13T16:25:55.399Z,14.80
2018-01-13T16:28:21.657Z,18.05
2018-01-13T16:30:48.293Z,14.02
2018-01-13T16:33:14.385Z,18.02
2018-01-13T16:35:42.080Z,12.93
2018-01-13T16:38:08.867Z,12.95
2018-01-13T16:40:35.004Z,11.63
2018-01-13T16:43:01.281Z,19.98
2018-01-13T16:45:28.315Z,14.45
2018-01-13T16:47:55.337Z,14.35
2018-01-13T16:50:21.674Z,16.05
2018-01-13T16:52:50.312Z,13.80
2018-01-13T16:55:16.578Z,14.13
2018-01-13T16:57:43.574Z,14.82
2018-01-13T17:00:09.628Z,15.25
2018-01-13T17:02:35.949Z,15.40
2018-01-13T17:05:02.228Z,18.10
2018-01-13T17:07:28.617Z,17.05
2018-01-13T17:09:54.892Z,15.30
2018-01-13T17:12:24.469Z,16.70
2018-01-13T17:14:50.712Z,15.85
2018-01-13T17:17:17.033Z,13.60
2018-01-13T17:19:43.302Z,17.27
2018-01-13T17:22:09.569Z,14.07
2018-01-13T17:24:35.612Z,14.40
2018-01-13T17:27:01.682Z,13.88
2018-01-13T17:29:27.746Z,14.60
2018-01-13T17:32:01.306Z,14.50
2018-01-13T17:34:27.370Z,15.13
2018-01-13T17:36:53.457Z,13.43
2018-01-13T17:39:20.296Z,16.87
2018-01-13T17:41:46.337Z,14.75
2018-01-13T17:44:12.381Z,16.17
2018-01-13T17:46:38.628Z,18.35
2018-01-13T17:49:07.712Z,18.02
2018-01-13T17:51:33.952Z,18.52
2018-01-13T17:54:00.212Z,15.25
2018-01-13T17:56:26.590Z,17.20
2018-01-13T17:58:52.860Z,15.13
2018-01-13T18:01:19.158Z,17.60
2018-01-13T18:03:46.241Z,15.50
2018-01-13T18:06:12.565Z,17.37
2018-01-13T18:08:39.410Z,14.60
2018-01-13T18:11:05.457Z,17.90
2018-01-13T18:13:31.548Z,17.08
2018-01-13T18:15:57.616Z,17.40
2018-01-13T18:18:23.674Z,20.23
2018-01-13T18:20:49.894Z,18.52
2018-01-13T18:23:15.946Z,18.87
2018-01-13T18:25:42.198Z,18.60
2018-01-13T18:28:09.072Z,18.30
2018-01-13T18:30:35.427Z,15.57
2018-01-13T18:33:01.632Z,21.30
2018-01-13T18:35:27.997Z,17.83
2018-01-13T18:37:54.244Z,18.12
2018-01-13T18:40:20.493Z,19.15
2018-01-13T18:42:46.709Z,19.15
2018-01-13T18:45:13.732Z,19.27
2018-01-13T18:47:39.981Z,16.37
2018-01-13T18:50:06.220Z,16.98
2018-01-13T18:52:32.443Z,17.25
2018-01-13T18:54:58.497Z,16.15
2018-01-13T18:57:24.752Z,17.50
2018-01-13T18:59:51.709Z,24.05
2018-01-13T19:02:18.576Z,18.52
2018-01-13T19:04:45.590Z,16.45
2018-01-13T19:07:11.829Z,16.20
2018-01-13T19:09:38.102Z,18.48
2018-01-13T19:12:04.441Z,17.70
2018-01-13T19:14:30.845Z,21.35
2018-01-13T19:16:57.061Z,19.12
2018-01-13T19:19:23.309Z,17.65
2018-01-13T19:21:49.532Z,17.33
2018-01-13T19:24:15.782Z,18.77
2018-01-13T19:26:42.077Z,22.20
2018-01-13T19:29:08.724Z,19.95
2018-01-13T19:31:35.098Z,17.17
2018-01-13T19:34:02.076Z,19.33
2018-01-13T19:36:28.354Z,16.20
2018-01-13T19:38:54.602Z,15.40
2018-01-13T19:41:22.094Z,20.00
2018-01-13T19:43:49.027Z,18.77
2018-01-13T19:46:15.275Z,18.58
2018-01-13T19:48:42.777Z,19.60
2018-01-13T19:51:09.896Z,17.90
2018-01-13T19:53:36.124Z,19.80
2018-01-13T19:56:02.773Z,21.75
2018-01-13T19:58:29.025Z,23.52
2018-01-13T20:00:55.278Z,19.37
2018-01-13T20:03:21.803Z,20.40
2018-01-13T20:05:48.043Z,18.60
2018-01-13T20:08:14.298Z,21.02
2018-01-13T20:10:41.085Z,19.15
2018-01-13T20:13:07.882Z,16.50
2018-01-13T20:15:34.270Z,19.58
2018-01-13T20:18:00.501Z,20.42
2018-01-13T20:20:26.637Z,17.27
2018-01-13T20:22:52.689Z,21.50
2018-01-13T20:25:18.925Z,20.73
2018-01-13T20:27:45.170Z,19.40
2018-01-13T20:30:12.153Z,17.33
2018-01-13T20:32:38.524Z,20.25
2018-01-13T20:35:04.777Z,18.73
2018-01-13T20:37:31.035Z,20.35
2018-01-13T20:39:57.270Z,20.12
2018-01-13T20:42:23.566Z,21.92
2018-01-13T20:44:49.600Z,19.58
2018-01-13T20:47:16.645Z,22.58
2018-01-13T20:49:42.957Z,19.67
2018-01-13T20:52:09.225Z,19.62
2018-01-13T20:54:36.220Z,20.58
2018-01-13T20:57:02.477Z,22.20
2018-01-13T20:59:28.740Z,23.05
2018-01-13T21:01:55.025Z,19.65
2018-01-13T21:04:21.285Z,18.65
2018-01-13T21:06:47.552Z,18.08
2018-01-13T21:09:13.816Z,22.77
2018-01-13T21:11:41.066Z,20.17
2018-01-13T21:14:08.097Z,19.77
2018-01-13T21:16:34.332Z,17.85
2018-01-13T21:19:00.601Z,19.48
2018-01-13T21:21:27.717Z,20.37
2018-01-13T21:23:53.989Z,17.52
2018-01-13T21:26:20.259Z,20.90
2018-01-13T21:28:47.226Z,21.45
2018-01-13T21:31:13.477Z,20.00
2018-01-13T21:33:40.472Z,22.10
2018-01-13T21:36:06.772Z,18.48
2018-01-13T21:38:33.033Z,22.85
2018-01-13T21:41:00.053Z,22.75
2018-01-13T21:43:26.176Z,23.58
2018-01-13T21:45:52.193Z,19.45
2018-01-13T21:48:18.429Z,21.60
2018-01-13T21:50:44.818Z,20.00
2018-01-13T21:53:11.042Z,20.10
2018-01-13T21:55:37.305Z,17.25
2018-01-13T21:58:03.972Z,19.58
2018-01-13T22:00:30.251Z,20.48
2018-01-13T22:02:56.686Z,22.67
2018-01-13T22:05:23.329Z,21.37
2018-01-13T22:07:50.347Z,22.55
2018-01-13T22:10:16.588Z,19.33
2018-01-13T22:12:42.861Z,22.60
2018-01-13T22:15:09.890Z,22.10
2018-01-13T22:17:36.266Z,20.73
2018-01-13T22:20:03.554Z,23.87
2018-01-13T22:22:30.545Z,20.85
2018-01-13T22:24:57.313Z,22.37
2018-01-13T22:27:23.447Z,21.50
2018-01-13T22:29:50.618Z,23.33
2018-01-13T22:32:16.873Z,23.58
2018-01-13T22:34:43.857Z,20.98
2018-01-13T22:37:10.148Z,25.35
2018-01-13T22:39:36.425Z,23.00
2018-01-13T22:42:02.706Z,22.33
2018-01-13T22:44:28.728Z,25.60
2018-01-13T22:46:55.040Z,25.42
2018-01-13T22:49:21.749Z,24.95
2018-01-13T22:51:48.000Z,24.05
2018-01-13T22:54:15.097Z,27.15
2018-01-13T22:56:42.136Z,22.15
2018-01-13T22:59:08.648Z,25.58
2018-01-13T23:01:34.919Z,22.58
2018-01-13T23:04:01.573Z,25.40
2018-01-13T23:06:27.624Z,24.77
2018-01-13T23:08:54.465Z,25.12
2018-01-13T23:11:20.589Z,24.83
2018-01-13T23:13:46.725Z,28.73
2018-01-13T23:16:12.864Z,28.08
2018-01-13T23:18:39.015Z,26.65
2018-01-13T23:21:05.157Z,24.37
2018-01-13T23:23:31.989Z,29.25
2018-01-13T23:25:58.017Z,25.40
2018-01-13T23:28:24.045Z,31.37
2018-01-13T23:30:50.069Z,32.85
2018-01-13T23:33:16.353Z,28.52
2018-01-13T23:35:42.972Z,30.15
2018-01-13T23:38:09.205Z,30.05
2018-01-13T23:40:35.465Z,29.20
2018-01-13T23:43:02.544Z,32.70
2018-01-13T23:45:28.809Z,27.87
2018-01-13T23:47:55.830Z,25.40
2018-01-13T23:50:22.305Z,30.42
2018-01-13T23:52:49.616Z,28.12
2018-01-13T23:55:15.664Z,33.75
2018-01-13T23:57:41.905Z,40.22
